sensor_id;sensor_type;location;lat;lon;timestamp;P1;durP1;ratioP1;P2;durP2;ratioP2
45940;SDS011;31858;46.008;8.978;2023-12-20T00:01:18;1.05;;;0.90;;
45940;SDS011;31858;46.008;8.978;2023-12-20T00:11:21;1.27;;;1.00;;
45940;SDS011;31858;46.008;8.978;2023-12-20T00:21:23;1.10;;;0.82;;
45940;SDS011;31858;46.008;8.978;2023-12-20T00:31:26;2.25;;;0.82;;
45940;SDS011;31858;46.008;8.978;2023-12-20T00:41:27;1.00;;;1.00;;
45940;SDS011;31858;46.008;8.978;2023-12-20T00:51:30;1.60;;;1.50;;
45940;SDS011;31858;46.008;8.978;2023-12-20T01:01:32;1.50;;;1.35;;
45940;SDS011;31858;46.008;8.978;2023-12-20T01:11:35;1.25;;;0.80;;
45940;SDS011;31858;46.008;8.978;2023-12-20T01:21:37;2.22;;;1.10;;
45940;SDS011;31858;46.008;8.978;2023-12-20T01:31:40;0.70;;;0.70;;
45940;SDS011;31858;46.008;8.978;2023-12-20T01:41:41;0.98;;;0.80;;
45940;SDS011;31858;46.008;8.978;2023-12-20T01:51:44;1.70;;;0.80;;
45940;SDS011;31858;46.008;8.978;2023-12-20T02:01:46;1.83;;;0.88;;
45940;SDS011;31858;46.008;8.978;2023-12-20T02:11:49;1.02;;;0.98;;
45940;SDS011;31858;46.008;8.978;2023-12-20T02:22:05;1.10;;;1.00;;
45940;SDS011;31858;46.008;8.978;2023-12-20T02:32:08;0.98;;;0.88;;
45940;SDS011;31858;46.008;8.978;2023-12-20T02:42:11;0.65;;;0.60;;
45940;SDS011;31858;46.008;8.978;2023-12-20T02:52:12;0.75;;;0.75;;
45940;SDS011;31858;46.008;8.978;2023-12-20T03:02:15;0.80;;;0.70;;
45940;SDS011;31858;46.008;8.978;2023-12-20T03:12:17;1.63;;;0.80;;
45940;SDS011;31858;46.008;8.978;2023-12-20T03:22:19;1.20;;;1.10;;
45940;SDS011;31858;46.008;8.978;2023-12-20T03:32:21;0.35;;;0.35;;
45940;SDS011;31858;46.008;8.978;2023-12-20T03:42:24;1.10;;;0.80;;
45940;SDS011;31858;46.008;8.978;2023-12-20T03:52:25;0.90;;;0.80;;
45940;SDS011;31858;46.008;8.978;2023-12-20T04:02:28;1.33;;;0.80;;
45940;SDS011;31858;46.008;8.978;2023-12-20T04:12:30;2.92;;;1.10;;
45940;SDS011;31858;46.008;8.978;2023-12-20T04:22:33;0.95;;;0.95;;
45940;SDS011;31858;46.008;8.978;2023-12-20T04:32:35;1.35;;;1.10;;
45940;SDS011;31858;46.008;8.978;2023-12-20T04:42:38;0.95;;;0.90;;
45940;SDS011;31858;46.008;8.978;2023-12-20T04:52:39;1.27;;;1.17;;
45940;SDS011;31858;46.008;8.978;2023-12-20T05:02:42;0.85;;;0.82;;
45940;SDS011;31858;46.008;8.978;2023-12-20T05:12:44;2.63;;;0.98;;
45940;SDS011;31858;46.008;8.978;2023-12-20T05:22:47;1.27;;;1.17;;
45940;SDS011;31858;46.008;8.978;2023-12-20T05:32:48;1.13;;;1.00;;
45940;SDS011;31858;46.008;8.978;2023-12-20T05:42:53;3.78;;;1.17;;
45940;SDS011;31858;46.008;8.978;2023-12-20T05:52:55;1.67;;;1.00;;
45940;SDS011;31858;46.008;8.978;2023-12-20T06:02:58;1.77;;;1.00;;
45940;SDS011;31858;46.008;8.978;2023-12-20T06:12:59;1.80;;;1.10;;
45940;SDS011;31858;46.008;8.978;2023-12-20T06:23:03;1.35;;;1.00;;
45940;SDS011;31858;46.008;8.978;2023-12-20T06:33:04;0.95;;;0.95;;
45940;SDS011;31858;46.008;8.978;2023-12-20T06:43:08;1.50;;;1.17;;
45940;SDS011;31858;46.008;8.978;2023-12-20T06:53:09;1.25;;;1.10;;
45940;SDS011;31858;46.008;8.978;2023-12-20T07:03:12;4.03;;;1.30;;
45940;SDS011;31858;46.008;8.978;2023-12-20T07:13:14;1.90;;;1.33;;
45940;SDS011;31858;46.008;8.978;2023-12-20T07:23:17;3.63;;;1.33;;
45940;SDS011;31858;46.008;8.978;2023-12-20T07:33:19;1.65;;;1.30;;
45940;SDS011;31858;46.008;8.978;2023-12-20T07:43:23;1.48;;;1.30;;
45940;SDS011;31858;46.008;8.978;2023-12-20T07:53:24;1.35;;;1.05;;
45940;SDS011;31858;46.008;8.978;2023-12-20T08:03:27;1.63;;;1.25;;
45940;SDS011;31858;46.008;8.978;2023-12-20T08:13:29;1.02;;;0.85;;
45940;SDS011;31858;46.008;8.978;2023-12-20T08:23:32;1.95;;;1.38;;
45940;SDS011;31858;46.008;8.978;2023-12-20T08:33:33;1.70;;;1.15;;
45940;SDS011;31858;46.008;8.978;2023-12-20T08:43:36;0.70;;;0.70;;
45940;SDS011;31858;46.008;8.978;2023-12-20T08:53:40;2.65;;;1.23;;
45940;SDS011;31858;46.008;8.978;2023-12-20T09:03:43;1.52;;;0.93;;
45940;SDS011;31858;46.008;8.978;2023-12-20T09:13:44;1.17;;;1.02;;
45940;SDS011;31858;46.008;8.978;2023-12-20T09:23:47;2.60;;;0.75;;
45940;SDS011;31858;46.008;8.978;2023-12-20T09:33:49;1.13;;;1.02;;
45940;SDS011;31858;46.008;8.978;2023-12-20T09:43:52;4.28;;;1.15;;
45940;SDS011;31858;46.008;8.978;2023-12-20T09:53:57;1.00;;;0.93;;
45940;SDS011;31858;46.008;8.978;2023-12-20T10:04:04;2.60;;;1.00;;
45940;SDS011;31858;46.008;8.978;2023-12-20T10:14:10;0.82;;;0.82;;
45940;SDS011;31858;46.008;8.978;2023-12-20T10:24:17;0.40;;;0.40;;
45940;SDS011;31858;46.008;8.978;2023-12-20T10:34:19;0.70;;;0.70;;
45940;SDS011;31858;46.008;8.978;2023-12-20T10:44:22;0.93;;;0.82;;
45940;SDS011;31858;46.008;8.978;2023-12-20T10:54:24;4.03;;;0.65;;
45940;SDS011;31858;46.008;8.978;2023-12-20T11:04:28;1.02;;;0.20;;
45940;SDS011;31858;46.008;8.978;2023-12-20T11:14:41;0.30;;;0.30;;
45940;SDS011;31858;46.008;8.978;2023-12-20T11:24:48;0.50;;;0.38;;
45940;SDS011;31858;46.008;8.978;2023-12-20T11:34:51;0.25;;;0.25;;
45940;SDS011;31858;46.008;8.978;2023-12-20T11:44:55;0.30;;;0.30;;
45940;SDS011;31858;46.008;8.978;2023-12-20T11:54:57;0.40;;;0.40;;
45940;SDS011;31858;46.008;8.978;2023-12-20T12:05:00;1.95;;;0.30;;
45940;SDS011;31858;46.008;8.978;2023-12-20T12:15:02;6.10;;;0.45;;
45940;SDS011;31858;46.008;8.978;2023-12-20T12:25:12;1.27;;;0.20;;
45940;SDS011;31858;46.008;8.978;2023-12-20T12:35:14;0.20;;;0.20;;
45940;SDS011;31858;46.008;8.978;2023-12-20T12:45:17;0.20;;;0.20;;
45940;SDS011;31858;46.008;8.978;2023-12-20T12:55:19;0.38;;;0.35;;
45940;SDS011;31858;46.008;8.978;2023-12-20T13:05:22;0.60;;;0.30;;
45940;SDS011;31858;46.008;8.978;2023-12-20T13:15:23;0.30;;;0.30;;
45940;SDS011;31858;46.008;8.978;2023-12-20T13:25:26;2.55;;;0.32;;
45940;SDS011;31858;46.008;8.978;2023-12-20T13:35:28;0.80;;;0.30;;
45940;SDS011;31858;46.008;8.978;2023-12-20T13:45:31;2.22;;;0.30;;
45940;SDS011;31858;46.008;8.978;2023-12-20T13:55:32;0.30;;;0.30;;
45940;SDS011;31858;46.008;8.978;2023-12-20T14:05:35;0.30;;;0.30;;
45940;SDS011;31858;46.008;8.978;2023-12-20T14:15:37;2.38;;;0.43;;
45940;SDS011;31858;46.008;8.978;2023-12-20T14:25:40;0.30;;;0.30;;
45940;SDS011;31858;46.008;8.978;2023-12-20T14:35:42;0.43;;;0.40;;
45940;SDS011;31858;46.008;8.978;2023-12-20T14:45:45;2.05;;;0.35;;
45940;SDS011;31858;46.008;8.978;2023-12-20T14:55:47;6.93;;;0.57;;
45940;SDS011;31858;46.008;8.978;2023-12-20T15:05:52;0.20;;;0.20;;
45940;SDS011;31858;46.008;8.978;2023-12-20T15:15:56;0.50;;;0.30;;
45940;SDS011;31858;46.008;8.978;2023-12-20T15:25:59;0.45;;;0.45;;
45940;SDS011;31858;46.008;8.978;2023-12-20T15:36:01;0.75;;;0.70;;
45940;SDS011;31858;46.008;8.978;2023-12-20T15:46:04;3.05;;;0.28;;
45940;SDS011;31858;46.008;8.978;2023-12-20T15:56:06;0.17;;;0.17;;
45940;SDS011;31858;46.008;8.978;2023-12-20T16:06:10;0.20;;;0.20;;
45940;SDS011;31858;46.008;8.978;2023-12-20T16:16:12;0.30;;;0.30;;
45940;SDS011;31858;46.008;8.978;2023-12-20T16:26:15;1.30;;;0.32;;
45940;SDS011;31858;46.008;8.978;2023-12-20T16:36:17;0.20;;;0.20;;
45940;SDS011;31858;46.008;8.978;2023-12-20T16:46:20;0.38;;;0.28;;
45940;SDS011;31858;46.008;8.978;2023-12-20T16:56:21;0.32;;;0.30;;
45940;SDS011;31858;46.008;8.978;2023-12-20T17:06:24;0.30;;;0.30;;
45940;SDS011;31858;46.008;8.978;2023-12-20T17:16:26;2.00;;;0.15;;
45940;SDS011;31858;46.008;8.978;2023-12-20T17:26:29;0.10;;;0.10;;
45940;SDS011;31858;46.008;8.978;2023-12-20T17:36:31;0.47;;;0.40;;
45940;SDS011;31858;46.008;8.978;2023-12-20T17:46:34;1.33;;;0.80;;
45940;SDS011;31858;46.008;8.978;2023-12-20T17:56:35;0.50;;;0.50;;
45940;SDS011;31858;46.008;8.978;2023-12-20T18:06:38;0.30;;;0.30;;
45940;SDS011;31858;46.008;8.978;2023-12-20T18:16:40;0.40;;;0.35;;
45940;SDS011;31858;46.008;8.978;2023-12-20T18:26:43;0.30;;;0.30;;
45940;SDS011;31858;46.008;8.978;2023-12-20T18:36:44;0.20;;;0.20;;
45940;SDS011;31858;46.008;8.978;2023-12-20T18:46:49;0.25;;;0.25;;
45940;SDS011;31858;46.008;8.978;2023-12-20T18:56:51;0.25;;;0.25;;
45940;SDS011;31858;46.008;8.978;2023-12-20T19:06:54;0.40;;;0.40;;
45940;SDS011;31858;46.008;8.978;2023-12-20T19:16:57;0.25;;;0.25;;
45940;SDS011;31858;46.008;8.978;2023-12-20T19:27:02;0.30;;;0.30;;
45940;SDS011;31858;46.008;8.978;2023-12-20T19:37:04;0.52;;;0.45;;
45940;SDS011;31858;46.008;8.978;2023-12-20T19:47:07;0.50;;;0.50;;
45940;SDS011;31858;46.008;8.978;2023-12-20T19:57:08;0.60;;;0.30;;
45940;SDS011;31858;46.008;8.978;2023-12-20T20:07:11;0.65;;;0.65;;
45940;SDS011;31858;46.008;8.978;2023-12-20T20:17:14;0.20;;;0.20;;
45940;SDS011;31858;46.008;8.978;2023-12-20T20:27:17;0.20;;;0.20;;
45940;SDS011;31858;46.008;8.978;2023-12-20T20:37:21;0.45;;;0.45;;
45940;SDS011;31858;46.008;8.978;2023-12-20T20:47:24;0.73;;;0.73;;
45940;SDS011;31858;46.008;8.978;2023-12-20T20:57:26;0.60;;;0.60;;
45940;SDS011;31858;46.008;8.978;2023-12-20T21:07:31;0.10;;;0.10;;
45940;SDS011;31858;46.008;8.978;2023-12-20T21:17:33;1.58;;;0.40;;
45940;SDS011;31858;46.008;8.978;2023-12-20T21:27:36;0.35;;;0.35;;
45940;SDS011;31858;46.008;8.978;2023-12-20T21:37:39;0.10;;;0.10;;
45940;SDS011;31858;46.008;8.978;2023-12-20T21:47:45;0.10;;;0.10;;
45940;SDS011;31858;46.008;8.978;2023-12-20T21:57:46;0.22;;;0.22;;
45940;SDS011;31858;46.008;8.978;2023-12-20T22:07:49;0.20;;;0.20;;
45940;SDS011;31858;46.008;8.978;2023-12-20T22:17:51;0.10;;;0.10;;
45940;SDS011;31858;46.008;8.978;2023-12-20T22:27:54;0.30;;;0.30;;
45940;SDS011;31858;46.008;8.978;2023-12-20T22:37:56;0.15;;;0.15;;
45940;SDS011;31858;46.008;8.978;2023-12-20T22:48:00;0.20;;;0.20;;
45940;SDS011;31858;46.008;8.978;2023-12-20T22:58:02;0.40;;;0.30;;
45940;SDS011;31858;46.008;8.978;2023-12-20T23:08:05;0.20;;;0.20;;
45940;SDS011;31858;46.008;8.978;2023-12-20T23:18:10;0.28;;;0.28;;
45940;SDS011;31858;46.008;8.978;2023-12-20T23:28:13;0.20;;;0.20;;
45940;SDS011;31858;46.008;8.978;2023-12-20T23:38:14;0.32;;;0.30;;
45940;SDS011;31858;46.008;8.978;2023-12-20T23:48:17;1.08;;;0.60;;
45940;SDS011;31858;46.008;8.978;2023-12-20T23:58:19;0.40;;;0.40;;
